createdAt,value
2019-04-30T00:00:55.404Z,14.95
2019-04-30T00:03:28.362Z,15.53
2019-04-30T00:05:57.607Z,16.42
2019-04-30T00:08:30.167Z,18.45
2019-04-30T00:10:56.372Z,16.90
2019-04-30T00:13:25.864Z,16.77
2019-04-30T00:15:58.799Z,17.60
2019-04-30T00:18:25.491Z,18.77
2019-04-30T00:20:55.345Z,17.30
2019-04-30T00:23:29.309Z,17.70
2019-04-30T00:25:58.377Z,16.82
2019-04-30T00:28:25.525Z,17.80
2019-04-30T00:30:56.247Z,17.42
2019-04-30T00:33:27.477Z,18.65
2019-04-30T00:35:57.886Z,17.30
2019-04-30T00:38:29.420Z,17.42
2019-04-30T00:40:57.860Z,16.48
2019-04-30T00:43:27.271Z,15.65
2019-04-30T00:45:55.705Z,16.25
2019-04-30T00:48:27.926Z,15.50
2019-04-30T00:50:55.784Z,15.90
2019-04-30T00:53:26.202Z,18.42
2019-04-30T00:55:57.201Z,20.00
2019-04-30T00:58:30.058Z,19.12
2019-04-30T01:01:06.839Z,20.85
2019-04-30T01:03:35.231Z,19.10
2019-04-30T01:06:05.379Z,18.50
2019-04-30T01:08:35.832Z,19.73
2019-04-30T01:11:09.370Z,20.35
2019-04-30T01:13:35.828Z,20.40
2019-04-30T01:16:04.247Z,19.20
2019-04-30T01:18:32.682Z,18.57
2019-04-30T01:21:02.945Z,19.45
2019-04-30T01:23:31.550Z,19.80
2019-04-30T01:26:01.102Z,19.07
2019-04-30T01:28:30.151Z,19.98
2019-04-30T01:31:01.896Z,21.15
2019-04-30T01:33:34.512Z,18.70
2019-04-30T01:36:04.173Z,20.82
2019-04-30T01:38:30.666Z,19.55
2019-04-30T01:40:59.594Z,21.50
2019-04-30T01:43:33.119Z,19.65
2019-04-30T01:46:01.991Z,22.82
2019-04-30T01:48:29.253Z,24.65
2019-04-30T01:50:58.638Z,23.77
2019-04-30T01:53:28.567Z,21.80
2019-04-30T01:56:15.712Z,20.48
2019-04-30T01:58:45.846Z,22.07
2019-04-30T02:01:16.198Z,21.35
2019-04-30T02:03:44.880Z,20.48
2019-04-30T02:06:13.969Z,22.67
2019-04-30T02:08:42.584Z,22.05
2019-04-30T02:11:11.349Z,18.27
2019-04-30T02:13:39.801Z,20.57
2019-04-30T02:16:08.673Z,24.65
2019-04-30T02:18:39.289Z,23.83
2019-04-30T02:21:08.973Z,26.27
2019-04-30T02:23:39.240Z,27.75
2019-04-30T02:26:08.653Z,26.85
2019-04-30T02:28:37.233Z,26.77
2019-04-30T02:31:06.097Z,23.02
2019-04-30T02:33:36.930Z,25.85
2019-04-30T02:36:10.366Z,25.82
2019-04-30T02:38:40.037Z,28.92
2019-04-30T02:41:09.835Z,27.67
2019-04-30T02:43:42.134Z,25.50
2019-04-30T02:46:12.612Z,25.92
2019-04-30T02:48:42.201Z,26.52
2019-04-30T02:51:13.767Z,24.52
2019-04-30T02:53:50.996Z,26.30
2019-04-30T02:56:21.180Z,23.50
2019-04-30T02:58:50.546Z,26.25
2019-04-30T03:01:20.416Z,23.92
2019-04-30T03:03:50.055Z,27.85
2019-04-30T03:06:23.152Z,22.45
2019-04-30T03:08:51.130Z,26.90
2019-04-30T03:11:20.694Z,21.42
2019-04-30T03:13:49.847Z,24.72
2019-04-30T03:16:20.940Z,21.10
2019-04-30T03:18:54.271Z,21.35
2019-04-30T03:21:41.316Z,27.35
2019-04-30T03:24:11.238Z,23.67
2019-04-30T03:26:40.363Z,22.15
2019-04-30T03:29:11.320Z,28.98
2019-04-30T03:31:44.159Z,22.10
2019-04-30T03:34:12.376Z,23.47
2019-04-30T03:36:40.726Z,23.57
2019-04-30T03:39:11.033Z,24.07
2019-04-30T03:41:41.257Z,27.80
2019-04-30T03:44:20.922Z,26.68
2019-04-30T03:46:40.675Z,25.80
2019-04-30T03:49:12.655Z,28.95
2019-04-30T03:51:40.297Z,22.02
2019-04-30T03:54:10.032Z,24.55
2019-04-30T03:56:39.878Z,24.87
2019-04-30T03:59:10.476Z,30.90
2019-04-30T04:01:41.053Z,23.02
2019-04-30T04:04:11.436Z,23.07
2019-04-30T04:06:44.621Z,26.77
2019-04-30T04:09:22.037Z,23.67
2019-04-30T04:11:50.876Z,25.23
2019-04-30T04:14:19.827Z,22.40
2019-04-30T04:16:50.949Z,21.25
2019-04-30T04:19:19.699Z,20.57
2019-04-30T04:21:50.754Z,19.65
2019-04-30T04:24:20.419Z,21.68
2019-04-30T04:26:50.174Z,19.50
2019-04-30T04:29:19.647Z,18.40
2019-04-30T04:31:50.097Z,17.15
2019-04-30T04:34:19.715Z,16.62
2019-04-30T04:36:50.628Z,16.97
2019-04-30T04:39:20.238Z,15.90
2019-04-30T04:41:50.280Z,13.05
2019-04-30T04:44:20.322Z,13.38
2019-04-30T04:46:50.393Z,12.75
2019-04-30T04:49:20.762Z,12.60
2019-04-30T04:51:49.399Z,11.97
2019-04-30T04:54:19.945Z,10.68
2019-04-30T04:56:52.984Z,10.85
2019-04-30T04:59:20.118Z,11.15
2019-04-30T05:01:49.070Z,9.28
2019-04-30T05:04:19.983Z,9.35
2019-04-30T05:06:49.819Z,9.58
2019-04-30T05:09:19.501Z,8.80
2019-04-30T05:11:48.729Z,9.55
2019-04-30T05:14:18.989Z,8.45
2019-04-30T05:16:50.309Z,9.08
2019-04-30T05:19:18.830Z,8.80
2019-04-30T05:21:51.498Z,9.33
2019-04-30T05:24:19.002Z,8.43
2019-04-30T05:26:49.907Z,8.60
2019-04-30T05:29:19.053Z,8.53
2019-04-30T05:31:48.571Z,8.58
2019-04-30T05:34:18.841Z,8.68
2019-04-30T05:36:48.974Z,8.20
2019-04-30T05:39:18.873Z,9.15
2019-04-30T05:41:49.206Z,8.48
2019-04-30T05:44:18.496Z,8.40
2019-04-30T05:46:47.087Z,8.15
2019-04-30T05:49:15.868Z,8.73
2019-04-30T05:51:53.516Z,8.68
2019-04-30T05:54:14.988Z,7.95
2019-04-30T05:56:43.418Z,8.20
2019-04-30T05:59:12.162Z,7.75
2019-04-30T06:01:47.871Z,8.18
2019-04-30T06:04:11.289Z,7.97
2019-04-30T06:06:40.606Z,8.38
2019-04-30T06:09:31.670Z,7.97
2019-04-30T06:12:09.467Z,8.15
2019-04-30T06:14:48.973Z,8.48
2019-04-30T06:17:13.729Z,8.18
2019-04-30T06:19:42.233Z,8.45
2019-04-30T06:22:11.250Z,8.08
2019-04-30T06:25:03.147Z,7.78
2019-04-30T06:27:31.808Z,7.37
2019-04-30T06:30:00.524Z,8.13
2019-04-30T06:32:29.615Z,7.12
2019-04-30T06:34:59.284Z,7.37
2019-04-30T06:37:28.816Z,7.12
2019-04-30T06:39:59.164Z,7.75
2019-04-30T06:42:29.324Z,7.92
2019-04-30T06:44:59.110Z,7.42
2019-04-30T06:47:33.245Z,7.33
2019-04-30T06:49:58.746Z,7.28
2019-04-30T06:52:29.354Z,7.50
2019-04-30T06:54:59.589Z,8.18
2019-04-30T06:57:29.509Z,8.90
2019-04-30T06:59:59.598Z,8.28
2019-04-30T07:02:30.620Z,8.13
2019-04-30T07:04:58.804Z,8.20
2019-04-30T07:07:37.066Z,8.68
2019-04-30T07:10:01.339Z,8.05
2019-04-30T07:12:40.336Z,9.40
2019-04-30T07:15:09.461Z,8.38
2019-04-30T07:17:40.537Z,9.08
2019-04-30T07:20:10.457Z,9.23
2019-04-30T07:25:09.611Z,9.68
2019-04-30T07:27:40.171Z,9.63
2019-04-30T07:30:09.934Z,10.08
2019-04-30T07:32:39.011Z,10.35
2019-04-30T07:35:09.495Z,10.10
2019-04-30T07:37:39.159Z,10.70
2019-04-30T07:40:09.134Z,10.08
2019-04-30T07:42:44.114Z,9.03
2019-04-30T07:45:09.699Z,9.90
2019-04-30T07:47:39.555Z,10.03
2019-04-30T07:50:10.731Z,10.35
2019-04-30T07:52:58.014Z,11.10
2019-04-30T07:55:09.769Z,10.93
2019-04-30T07:57:40.380Z,11.08
2019-04-30T08:00:09.809Z,12.28
2019-04-30T08:02:43.523Z,11.33
2019-04-30T08:05:12.460Z,12.20
2019-04-30T08:07:40.936Z,12.18
2019-04-30T08:09:34.154Z,9.63
2019-04-30T08:10:09.576Z,12.40
2019-04-30T08:12:42.636Z,12.85
2019-04-30T08:15:09.668Z,12.63
2019-04-30T08:17:38.899Z,13.48
2019-04-30T08:20:08.754Z,13.13
2019-04-30T08:22:40.887Z,13.38
2019-04-30T08:25:09.708Z,14.05
2019-04-30T08:27:39.244Z,14.65
2019-04-30T08:30:21.377Z,14.40
2019-04-30T08:32:39.248Z,15.93
2019-04-30T08:35:09.904Z,14.70
2019-04-30T08:37:38.646Z,15.03
2019-04-30T08:40:08.659Z,16.15
2019-04-30T08:42:40.213Z,16.20
2019-04-30T08:45:09.515Z,17.45
2019-04-30T08:47:39.300Z,17.65
2019-04-30T08:50:09.733Z,18.15
2019-04-30T08:52:39.424Z,18.45
2019-04-30T08:55:14.131Z,19.00
2019-04-30T08:57:39.565Z,18.82
2019-04-30T09:00:09.225Z,18.90
2019-04-30T09:02:39.535Z,19.57
2019-04-30T09:05:10.060Z,17.82
2019-04-30T09:07:38.828Z,18.20
2019-04-30T09:10:29.271Z,18.00
2019-04-30T09:12:59.595Z,18.75
2019-04-30T09:15:29.076Z,18.80
2019-04-30T09:18:03.086Z,18.85
2019-04-30T09:20:29.174Z,18.70
2019-04-30T09:22:59.551Z,18.10
2019-04-30T09:25:28.687Z,18.40
2019-04-30T09:27:58.856Z,20.95
2019-04-30T09:30:29.774Z,20.52
2019-04-30T09:32:59.527Z,20.20
2019-04-30T09:35:30.123Z,19.27
2019-04-30T09:38:01.648Z,20.95
2019-04-30T09:40:32.259Z,20.70
2019-04-30T09:43:00.450Z,20.30
2019-04-30T09:45:29.100Z,20.50
2019-04-30T09:47:59.230Z,21.00
2019-04-30T09:50:29.000Z,20.15
2019-04-30T09:53:00.331Z,22.13
2019-04-30T09:55:29.062Z,22.00
2019-04-30T09:57:58.904Z,18.98
2019-04-30T10:00:29.526Z,18.98
2019-04-30T10:02:59.880Z,19.40
2019-04-30T10:05:29.361Z,18.57
2019-04-30T10:07:59.374Z,18.98
2019-04-30T10:10:29.640Z,19.77
2019-04-30T10:12:59.248Z,19.73
2019-04-30T10:15:45.805Z,19.60
2019-04-30T10:18:14.428Z,20.75
2019-04-30T10:20:44.449Z,20.77
2019-04-30T10:23:13.240Z,20.57
2019-04-30T10:25:42.032Z,20.20
2019-04-30T10:28:10.822Z,20.30
2019-04-30T10:30:42.168Z,20.68
2019-04-30T10:33:10.629Z,19.95
2019-04-30T10:35:39.078Z,20.30
2019-04-30T10:38:09.713Z,20.05
2019-04-30T10:40:39.010Z,20.77
2019-04-30T10:43:08.852Z,20.32
2019-04-30T10:45:39.077Z,20.68
2019-04-30T10:48:08.129Z,20.20
2019-04-30T10:50:36.582Z,19.00
2019-04-30T10:53:05.296Z,21.62
2019-04-30T10:55:34.158Z,20.05
2019-04-30T10:58:02.695Z,18.80
2019-04-30T11:01:01.774Z,18.98
2019-04-30T11:03:29.950Z,20.55
2019-04-30T11:05:58.832Z,19.75
2019-04-30T11:08:27.279Z,18.77
2019-04-30T11:11:17.971Z,19.65
2019-04-30T11:13:49.057Z,20.05
2019-04-30T11:16:18.883Z,19.90
2019-04-30T11:18:47.651Z,19.23
2019-04-30T11:21:16.845Z,20.50
2019-04-30T11:23:45.976Z,19.90
2019-04-30T11:26:16.025Z,20.20
2019-04-30T11:28:45.469Z,21.40
2019-04-30T11:31:16.107Z,20.48
2019-04-30T11:33:45.288Z,20.90
2019-04-30T11:36:14.080Z,21.48
2019-04-30T11:38:42.520Z,21.35
2019-04-30T11:41:11.132Z,21.75
2019-04-30T11:43:39.948Z,22.50
2019-04-30T11:46:28.563Z,20.85
2019-04-30T11:48:58.566Z,21.40
2019-04-30T11:51:27.180Z,22.75
2019-04-30T11:53:59.217Z,21.33
2019-04-30T11:56:27.690Z,21.77
2019-04-30T11:58:56.263Z,22.50
2019-04-30T12:01:26.351Z,23.10
2019-04-30T12:03:54.793Z,24.92
2019-04-30T12:06:23.578Z,24.98
2019-04-30T12:08:59.649Z,24.55
2019-04-30T12:11:29.723Z,25.27
2019-04-30T12:13:58.480Z,24.10
2019-04-30T12:16:28.550Z,25.52
2019-04-30T12:19:00.443Z,26.42
2019-04-30T12:21:27.671Z,25.92
2019-04-30T12:23:56.185Z,25.97
2019-04-30T12:26:45.476Z,27.87
2019-04-30T12:29:13.920Z,28.77
2019-04-30T12:31:42.712Z,29.35
2019-04-30T12:34:11.160Z,28.55
2019-04-30T12:36:39.604Z,27.35
2019-04-30T12:39:09.705Z,28.70
2019-04-30T12:41:39.006Z,29.37
2019-04-30T12:44:08.517Z,30.05
2019-04-30T12:46:38.737Z,28.00
2019-04-30T12:49:10.202Z,29.07
2019-04-30T12:51:45.992Z,28.70
2019-04-30T12:54:15.784Z,27.85
2019-04-30T12:57:04.090Z,28.57
2019-04-30T12:59:32.884Z,28.42
2019-04-30T13:02:01.332Z,27.62
2019-04-30T13:04:30.170Z,25.97
2019-04-30T13:07:01.608Z,26.45
2019-04-30T13:09:30.261Z,27.35
2019-04-30T13:12:00.571Z,26.57
2019-04-30T13:14:30.676Z,26.35
2019-04-30T13:16:59.751Z,28.12
2019-04-30T13:19:47.567Z,26.35
2019-04-30T13:22:16.272Z,25.90
2019-04-30T13:24:44.789Z,27.75
2019-04-30T13:27:13.553Z,26.85
2019-04-30T13:29:55.536Z,25.95
2019-04-30T13:32:30.168Z,24.23
2019-04-30T13:34:55.784Z,23.10
2019-04-30T13:37:24.292Z,24.07
2019-04-30T13:40:12.671Z,23.40
2019-04-30T13:42:42.816Z,22.13
2019-04-30T13:45:11.603Z,21.65
2019-04-30T13:47:40.031Z,20.55
2019-04-30T13:50:29.211Z,20.72
2019-04-30T13:52:58.817Z,19.70
2019-04-30T13:55:30.544Z,18.77
2019-04-30T13:57:57.834Z,20.92
2019-04-30T14:00:29.666Z,20.55
2019-04-30T14:03:03.194Z,19.92
2019-04-30T14:05:31.992Z,17.45
2019-04-30T14:08:17.196Z,12.47
2019-04-30T14:10:46.091Z,11.63
2019-04-30T14:13:14.841Z,10.88
2019-04-30T14:15:44.561Z,11.70
2019-04-30T14:18:13.528Z,11.00
2019-04-30T14:20:42.308Z,11.78
2019-04-30T14:23:10.853Z,11.20
2019-04-30T14:25:39.340Z,11.68
2019-04-30T14:28:09.430Z,12.23
2019-04-30T14:30:39.256Z,12.23
2019-04-30T14:33:09.487Z,11.65
2019-04-30T14:35:38.678Z,12.95
2019-04-30T14:38:09.018Z,12.25
2019-04-30T14:40:39.961Z,12.78
2019-04-30T14:43:29.867Z,14.38
2019-04-30T14:46:11.863Z,12.75
2019-04-30T14:51:35.972Z,13.40
2019-04-30T14:54:06.608Z,11.00
2019-04-30T14:56:39.909Z,11.10
2019-04-30T14:59:26.024Z,11.80
2019-04-30T15:02:02.057Z,11.88
2019-04-30T15:04:30.841Z,10.80
2019-04-30T15:06:59.416Z,11.93
2019-04-30T15:09:28.216Z,12.03
2019-04-30T15:11:58.550Z,11.45
2019-04-30T15:14:27.137Z,11.85
2019-04-30T15:16:55.930Z,12.25
2019-04-30T15:19:24.619Z,10.98
2019-04-30T15:21:53.408Z,12.25
2019-04-30T15:24:23.484Z,13.22
2019-04-30T15:26:57.727Z,13.45
2019-04-30T15:29:22.354Z,12.43
2019-04-30T15:31:50.805Z,12.70
2019-04-30T15:34:19.411Z,12.65
2019-04-30T15:36:49.270Z,12.13
2019-04-30T15:39:32.157Z,13.48
2019-04-30T15:42:00.671Z,14.07
2019-04-30T15:44:29.344Z,14.23
2019-04-30T15:47:00.346Z,13.70
2019-04-30T15:49:28.353Z,12.65
2019-04-30T15:51:57.141Z,13.85
2019-04-30T15:54:25.931Z,13.45
2019-04-30T15:56:54.789Z,14.10
2019-04-30T15:59:30.750Z,15.15
2019-04-30T16:02:09.897Z,13.50
2019-04-30T16:04:56.628Z,14.18
2019-04-30T16:07:25.064Z,12.93
2019-04-30T16:10:00.848Z,14.65
2019-04-30T16:12:31.174Z,15.15
2019-04-30T16:14:59.632Z,15.08
2019-04-30T16:17:29.194Z,15.38
2019-04-30T16:19:58.062Z,15.30
2019-04-30T16:22:29.073Z,14.53
2019-04-30T16:25:00.481Z,14.25
2019-04-30T16:27:28.544Z,13.68
2019-04-30T16:29:57.057Z,14.10
2019-04-30T16:32:25.491Z,13.25
2019-04-30T16:34:54.288Z,14.10
2019-04-30T16:37:22.727Z,13.50
2019-04-30T16:39:51.204Z,13.93
2019-04-30T16:42:19.642Z,13.88
2019-04-30T16:44:48.094Z,13.93
2019-04-30T16:47:17.130Z,13.38
2019-04-30T16:49:45.772Z,13.78
2019-04-30T16:52:14.620Z,14.05
2019-04-30T16:54:43.068Z,14.87
2019-04-30T16:57:11.525Z,14.35
2019-04-30T16:59:41.722Z,14.60
2019-04-30T17:02:10.708Z,14.53
2019-04-30T17:04:46.408Z,15.72
2019-04-30T17:07:34.812Z,14.58
2019-04-30T17:10:20.450Z,14.50
2019-04-30T17:12:51.509Z,14.53
2019-04-30T17:15:22.044Z,14.23
2019-04-30T17:17:51.657Z,13.93
2019-04-30T17:20:20.863Z,13.68
2019-04-30T17:22:49.859Z,14.35
2019-04-30T17:25:18.888Z,14.35
2019-04-30T17:27:47.505Z,14.53
2019-04-30T17:30:16.379Z,13.60
2019-04-30T17:32:45.233Z,13.58
2019-04-30T17:35:13.808Z,14.15
2019-04-30T17:37:43.844Z,14.30
2019-04-30T17:40:13.040Z,14.13
2019-04-30T17:42:41.475Z,14.83
2019-04-30T17:45:10.256Z,14.33
2019-04-30T17:47:39.017Z,15.55
2019-04-30T17:50:09.083Z,14.20
2019-04-30T17:52:37.549Z,14.80
2019-04-30T17:55:09.465Z,14.63
2019-04-30T17:57:40.047Z,14.33
2019-04-30T18:00:18.701Z,14.23
2019-04-30T18:02:40.943Z,15.18
2019-04-30T18:05:11.354Z,14.60
2019-04-30T18:07:40.067Z,14.58
2019-04-30T18:10:10.932Z,14.70
2019-04-30T18:12:39.727Z,14.95
2019-04-30T18:15:14.889Z,14.60
2019-04-30T18:17:44.983Z,15.53
2019-04-30T18:20:19.151Z,15.55
2019-04-30T18:22:55.925Z,15.93
2019-04-30T18:25:29.072Z,15.88
2019-04-30T18:28:02.420Z,15.87
2019-04-30T18:30:32.799Z,15.23
2019-04-30T18:33:01.264Z,16.07
2019-04-30T18:35:29.696Z,17.67
2019-04-30T18:37:58.661Z,19.35
2019-04-30T18:40:29.470Z,20.52
2019-04-30T18:42:59.339Z,21.45
2019-04-30T18:45:28.854Z,21.90
2019-04-30T18:47:59.432Z,21.73
2019-04-30T18:50:28.868Z,22.73
2019-04-30T18:52:59.373Z,22.52
2019-04-30T18:55:27.847Z,22.73
2019-04-30T18:57:59.167Z,20.62
2019-04-30T19:00:29.423Z,21.73
2019-04-30T19:02:58.622Z,20.68
2019-04-30T19:05:30.955Z,20.37
2019-04-30T19:11:13.756Z,20.68
2019-04-30T19:14:00.059Z,17.82
2019-04-30T19:16:30.464Z,18.48
2019-04-30T19:19:12.460Z,17.95
2019-04-30T19:21:59.186Z,18.92
2019-04-30T19:24:27.623Z,17.65
2019-04-30T19:26:56.097Z,17.37
2019-04-30T19:29:24.817Z,16.50
2019-04-30T19:31:53.613Z,16.82
2019-04-30T19:34:22.500Z,17.07
2019-04-30T19:36:50.947Z,16.30
2019-04-30T19:39:19.949Z,15.98
2019-04-30T19:41:49.012Z,14.93
2019-04-30T19:44:20.659Z,15.55
2019-04-30T19:46:48.770Z,13.62
2019-04-30T19:49:19.306Z,14.00
2019-04-30T19:51:49.512Z,14.10
2019-04-30T19:54:19.261Z,13.55
2019-04-30T19:56:50.082Z,14.15
2019-04-30T19:59:19.328Z,14.35
2019-04-30T20:01:48.848Z,14.45
2019-04-30T20:04:18.542Z,15.35
2019-04-30T20:06:48.730Z,15.58
2019-04-30T20:09:19.297Z,15.78
2019-04-30T20:11:49.252Z,15.68
2019-04-30T20:14:18.674Z,15.50
2019-04-30T20:16:48.676Z,16.17
2019-04-30T20:19:17.275Z,16.42
2019-04-30T20:21:53.068Z,16.42
2019-04-30T20:24:16.160Z,16.12
2019-04-30T20:26:44.970Z,15.70
2019-04-30T20:29:13.652Z,16.42
2019-04-30T20:31:42.437Z,15.80
2019-04-30T20:34:10.876Z,14.87
2019-04-30T20:36:39.412Z,15.15
2019-04-30T20:39:16.039Z,15.13
2019-04-30T20:41:44.637Z,15.50
2019-04-30T20:44:13.456Z,15.38
2019-04-30T20:46:42.970Z,14.55
2019-04-30T20:49:11.772Z,16.05
2019-04-30T20:51:52.613Z,15.80
2019-04-30T20:54:11.004Z,15.78
2019-04-30T20:56:39.771Z,15.83
2019-04-30T20:59:10.687Z,16.37
2019-04-30T21:01:39.298Z,15.30
2019-04-30T21:04:07.812Z,16.77
2019-04-30T21:06:36.249Z,15.65
2019-04-30T21:09:05.942Z,16.62
2019-04-30T21:11:34.674Z,16.42
2019-04-30T21:14:03.568Z,16.97
2019-04-30T21:16:33.315Z,17.05
2019-04-30T21:19:02.072Z,18.30
2019-04-30T21:21:49.884Z,18.73
2019-04-30T21:24:18.377Z,18.25
2019-04-30T21:26:46.896Z,19.87
2019-04-30T21:29:16.062Z,21.45
2019-04-30T21:31:49.289Z,21.07
2019-04-30T21:34:19.627Z,20.90
2019-04-30T21:36:49.596Z,21.35
2019-04-30T21:39:19.987Z,21.62
2019-04-30T21:41:49.436Z,22.58
2019-04-30T21:44:18.160Z,21.65
2019-04-30T21:46:46.998Z,23.77
2019-04-30T21:49:15.724Z,25.20
2019-04-30T21:51:44.440Z,24.57
2019-04-30T21:54:12.893Z,27.32
2019-04-30T21:56:41.319Z,28.83
2019-04-30T21:59:09.869Z,28.32
2019-04-30T22:01:38.580Z,30.82
2019-04-30T22:04:08.324Z,30.90
2019-04-30T22:06:36.754Z,32.00
2019-04-30T22:09:07.232Z,33.02
2019-04-30T22:11:35.674Z,31.30
2019-04-30T22:14:06.308Z,31.62
2019-04-30T22:16:54.105Z,33.33
2019-04-30T22:19:22.541Z,32.60
2019-04-30T22:21:50.992Z,34.15
2019-04-30T22:24:19.459Z,34.03
2019-04-30T22:26:49.104Z,35.88
2019-04-30T22:29:19.148Z,34.92
2019-04-30T22:31:49.489Z,33.02
2019-04-30T22:34:19.012Z,35.03
2019-04-30T22:36:48.824Z,36.70
2019-04-30T22:39:21.521Z,35.80
2019-04-30T22:41:50.250Z,35.95
2019-04-30T22:44:18.675Z,37.70
2019-04-30T22:46:49.155Z,36.30
2019-04-30T22:49:17.755Z,36.58
2019-04-30T22:51:46.338Z,37.40
2019-04-30T22:54:15.129Z,37.55
2019-04-30T22:56:43.575Z,39.40
2019-04-30T22:59:12.005Z,40.30
2019-04-30T23:01:57.160Z,39.30
2019-04-30T23:04:35.648Z,40.70
2019-04-30T23:07:04.269Z,39.35
2019-04-30T23:09:32.714Z,41.55
2019-04-30T23:12:03.520Z,40.85
2019-04-30T23:14:32.281Z,40.70
2019-04-30T23:17:01.069Z,41.68
2019-04-30T23:19:29.576Z,41.08
2019-04-30T23:21:59.942Z,40.52
2019-04-30T23:24:28.785Z,42.33
2019-04-30T23:26:57.292Z,41.98
2019-04-30T23:29:25.743Z,42.03
2019-04-30T23:31:54.181Z,40.98
2019-04-30T23:34:22.636Z,43.17
2019-04-30T23:36:51.408Z,42.53
2019-04-30T23:39:19.852Z,41.48
2019-04-30T23:41:48.542Z,42.60
2019-04-30T23:44:18.400Z,43.20
2019-04-30T23:46:47.196Z,43.68
2019-04-30T23:49:34.961Z,42.50
2019-04-30T23:52:03.407Z,44.10
2019-04-30T23:54:32.758Z,44.23
2019-04-30T23:57:01.199Z,43.65
2019-04-30T23:59:29.656Z,44.27
